createdAt,value
2017-09-28T00:00:11.957Z,19.33
2017-09-28T00:02:42.096Z,20.20
2017-09-28T00:05:12.106Z,19.03
2017-09-28T00:07:42.569Z,19.73
2017-09-28T00:10:12.729Z,19.00
2017-09-28T00:12:43.211Z,19.40
2017-09-28T00:15:13.377Z,19.53
2017-09-28T00:17:43.647Z,20.40
2017-09-28T00:20:13.960Z,18.37
2017-09-28T00:22:44.367Z,19.83
2017-09-28T00:25:15.589Z,19.83
2017-09-28T00:27:45.714Z,17.90
2017-09-28T00:30:17.041Z,18.40
2017-09-28T00:32:47.999Z,20.37
2017-09-28T00:35:18.630Z,19.00
2017-09-28T00:37:48.907Z,19.47
2017-09-28T00:40:19.433Z,17.80
2017-09-28T00:42:49.869Z,19.23
2017-09-28T00:45:20.217Z,19.80
2017-09-28T00:47:50.670Z,18.60
2017-09-28T00:50:21.282Z,17.70
2017-09-28T00:52:53.343Z,19.20
2017-09-28T00:55:30.072Z,18.50
2017-09-28T00:58:00.399Z,16.90
2017-09-28T01:00:30.666Z,17.40
2017-09-28T01:03:01.185Z,17.20
2017-09-28T01:05:31.693Z,18.17
2017-09-28T01:08:02.009Z,17.50
2017-09-28T01:10:32.315Z,17.50
2017-09-28T01:13:02.704Z,17.63
2017-09-28T01:15:33.282Z,18.70
2017-09-28T01:18:03.727Z,18.70
2017-09-28T01:20:34.262Z,18.07
2017-09-28T01:23:06.131Z,17.37
2017-09-28T01:25:36.394Z,19.43
2017-09-28T01:28:06.864Z,19.67
2017-09-28T01:30:37.189Z,18.10
2017-09-28T01:33:08.461Z,19.27
2017-09-28T01:35:39.695Z,19.10
2017-09-28T01:38:10.214Z,19.70
2017-09-28T01:40:40.682Z,18.13
2017-09-28T01:43:11.842Z,18.80
2017-09-28T01:45:42.120Z,19.00
2017-09-28T01:48:12.497Z,19.03
2017-09-28T01:50:42.686Z,19.80
2017-09-28T01:53:12.904Z,20.37
2017-09-28T01:55:43.360Z,19.47
2017-09-28T01:58:13.541Z,18.77
2017-09-28T02:00:44.083Z,19.70
2017-09-28T02:03:14.646Z,19.37
2017-09-28T02:05:45.020Z,19.97
2017-09-28T02:08:15.305Z,20.33
2017-09-28T02:10:45.754Z,20.30
2017-09-28T02:13:16.020Z,19.70
2017-09-28T02:15:47.077Z,17.57
2017-09-28T02:18:17.323Z,17.97
2017-09-28T02:20:47.454Z,16.77
2017-09-28T02:23:17.659Z,19.77
2017-09-28T02:25:48.001Z,17.90
2017-09-28T02:28:18.296Z,19.00
2017-09-28T02:30:48.611Z,18.40
2017-09-28T02:33:19.061Z,19.87
2017-09-28T02:35:49.284Z,18.57
2017-09-28T02:38:19.559Z,19.87
2017-09-28T02:40:49.873Z,18.63
2017-09-28T02:43:20.183Z,18.87
2017-09-28T02:45:50.329Z,18.27
2017-09-28T02:48:20.696Z,19.03
2017-09-28T02:50:50.947Z,19.13
2017-09-28T02:53:21.235Z,19.40
2017-09-28T02:55:51.547Z,18.17
2017-09-28T02:58:21.825Z,17.33
2017-09-28T03:00:52.249Z,19.77
2017-09-28T03:03:22.262Z,19.97
2017-09-28T03:05:52.747Z,20.33
2017-09-28T03:08:23.014Z,18.87
2017-09-28T03:10:53.951Z,18.57
2017-09-28T03:13:24.216Z,21.07
2017-09-28T03:15:55.154Z,20.20
2017-09-28T03:18:25.482Z,19.27
2017-09-28T03:20:55.807Z,18.40
2017-09-28T03:23:26.939Z,19.80
2017-09-28T03:25:57.123Z,17.43
2017-09-28T03:28:27.234Z,19.37
2017-09-28T03:30:57.346Z,18.80
2017-09-28T03:33:27.476Z,19.67
2017-09-28T03:35:57.547Z,18.50
2017-09-28T03:38:28.583Z,17.23
2017-09-28T03:40:58.765Z,19.43
2017-09-28T03:43:28.985Z,19.60
2017-09-28T03:45:59.315Z,20.60
2017-09-28T03:48:29.660Z,19.47
2017-09-28T03:50:59.938Z,18.67
2017-09-28T03:53:30.229Z,19.73
2017-09-28T03:56:01.238Z,20.57
2017-09-28T03:58:31.607Z,21.10
2017-09-28T04:01:02.001Z,19.67
2017-09-28T04:03:32.473Z,20.27
2017-09-28T04:06:02.737Z,19.67
2017-09-28T04:08:33.038Z,20.23
2017-09-28T04:11:03.469Z,21.63
2017-09-28T04:13:33.730Z,21.57
2017-09-28T04:16:04.148Z,21.33
2017-09-28T04:18:34.492Z,19.33
2017-09-28T04:21:05.457Z,18.17
2017-09-28T04:23:36.059Z,21.67
2017-09-28T04:26:06.683Z,22.30
2017-09-28T04:28:36.986Z,21.40
2017-09-28T04:31:07.326Z,21.00
2017-09-28T04:33:37.597Z,22.83
2017-09-28T04:36:07.845Z,22.20
2017-09-28T04:38:38.172Z,23.40
2017-09-28T04:41:09.276Z,22.20
2017-09-28T04:43:39.436Z,21.00
2017-09-28T04:46:11.177Z,21.77
2017-09-28T04:48:41.641Z,21.20
2017-09-28T04:51:11.991Z,22.60
2017-09-28T04:53:42.329Z,22.07
2017-09-28T04:56:12.618Z,21.70
2017-09-28T04:58:42.968Z,19.90
2017-09-28T05:01:13.434Z,21.33
2017-09-28T05:03:44.190Z,21.77
2017-09-28T05:06:15.221Z,22.40
2017-09-28T05:08:45.688Z,23.23
2017-09-28T05:11:15.886Z,21.00
2017-09-28T05:13:46.477Z,21.80
2017-09-28T05:16:16.711Z,21.77
2017-09-28T05:18:47.112Z,20.80
2017-09-28T05:21:17.364Z,22.23
2017-09-28T05:23:48.283Z,69.50
2017-09-28T05:26:18.592Z,38.77
2017-09-28T05:28:48.686Z,35.27
2017-09-28T05:31:19.606Z,39.30
2017-09-28T05:33:50.098Z,37.70
2017-09-28T05:36:20.512Z,36.87
2017-09-28T05:38:50.856Z,34.67
2017-09-28T05:41:21.196Z,34.60
2017-09-28T05:43:51.598Z,32.60
2017-09-28T05:46:22.594Z,31.30
2017-09-28T05:48:53.171Z,30.93
2017-09-28T05:51:23.441Z,33.60
2017-09-28T05:53:53.871Z,32.57
2017-09-28T05:56:24.304Z,29.03
2017-09-28T05:58:55.001Z,30.60
2017-09-28T06:01:25.472Z,28.30
2017-09-28T06:03:55.861Z,27.97
2017-09-28T06:06:26.200Z,29.50
2017-09-28T06:08:56.279Z,28.73
2017-09-28T06:11:27.206Z,27.70
2017-09-28T06:13:57.592Z,28.57
2017-09-28T06:16:27.834Z,28.00
2017-09-28T06:18:58.122Z,26.63
2017-09-28T06:21:28.208Z,28.10
2017-09-28T06:23:58.421Z,26.80
2017-09-28T06:26:28.727Z,28.80
2017-09-28T06:28:59.048Z,26.10
2017-09-28T06:31:29.439Z,28.50
2017-09-28T06:33:59.885Z,26.60
2017-09-28T06:36:30.196Z,27.30
2017-09-28T06:39:01.395Z,25.90
2017-09-28T06:41:31.931Z,24.47
2017-09-28T06:44:02.297Z,27.83
2017-09-28T06:46:32.707Z,26.50
2017-09-28T06:49:02.941Z,24.93
2017-09-28T06:51:33.159Z,26.20
2017-09-28T06:54:04.273Z,26.83
2017-09-28T06:56:34.478Z,23.23
2017-09-28T06:59:04.638Z,26.10
2017-09-28T07:01:35.799Z,25.10
2017-09-28T07:04:06.219Z,24.93
2017-09-28T07:06:36.590Z,25.53
2017-09-28T07:09:07.115Z,25.03
2017-09-28T07:11:37.560Z,26.63
2017-09-28T07:14:08.005Z,23.70
2017-09-28T07:16:38.377Z,22.67
2017-09-28T07:19:08.802Z,26.67
2017-09-28T07:21:38.901Z,24.87
2017-09-28T07:24:09.325Z,24.90
2017-09-28T07:26:39.633Z,23.10
2017-09-28T07:29:09.769Z,21.83
2017-09-28T07:31:40.098Z,23.13
2017-09-28T07:34:10.289Z,24.43
2017-09-28T07:36:41.366Z,23.93
2017-09-28T07:39:11.643Z,25.10
2017-09-28T07:41:41.955Z,23.53
2017-09-28T07:44:12.280Z,25.30
2017-09-28T07:46:42.593Z,20.97
2017-09-28T07:49:13.082Z,22.80
2017-09-28T07:51:43.261Z,22.60
2017-09-28T07:54:13.748Z,22.40
2017-09-28T07:56:44.028Z,23.90
2017-09-28T07:59:15.035Z,22.27
2017-09-28T08:01:45.473Z,21.17
2017-09-28T08:04:15.665Z,22.53
2017-09-28T08:06:45.962Z,23.93
2017-09-28T08:09:16.231Z,23.80
2017-09-28T08:11:46.607Z,21.37
2017-09-28T08:14:16.789Z,24.23
2017-09-28T08:16:47.237Z,25.10
2017-09-28T08:19:18.257Z,22.73
2017-09-28T08:21:48.818Z,22.10
2017-09-28T08:24:19.007Z,22.97
2017-09-28T08:26:49.237Z,24.20
2017-09-28T08:29:19.782Z,23.73
2017-09-28T08:31:50.074Z,20.50
2017-09-28T08:34:20.521Z,23.73
2017-09-28T08:36:51.560Z,21.93
2017-09-28T08:39:22.003Z,23.27
2017-09-28T08:41:52.369Z,21.10
2017-09-28T08:44:22.616Z,24.07
2017-09-28T08:46:52.987Z,23.37
2017-09-28T08:49:23.286Z,22.53
2017-09-28T08:51:54.242Z,22.13
2017-09-28T08:54:25.529Z,24.73
2017-09-28T08:56:55.912Z,22.57
2017-09-28T08:59:26.219Z,22.93
2017-09-28T09:01:56.537Z,21.07
2017-09-28T09:04:26.878Z,22.67
2017-09-28T09:06:57.890Z,21.63
2017-09-28T09:09:28.230Z,23.77
2017-09-28T09:11:58.556Z,21.90
2017-09-28T09:14:28.857Z,21.00
2017-09-28T09:16:59.323Z,23.30
2017-09-28T09:19:29.485Z,21.33
2017-09-28T09:22:00.508Z,19.90
2017-09-28T09:24:30.772Z,21.93
2017-09-28T09:27:01.238Z,21.67
2017-09-28T09:29:31.451Z,20.70
2017-09-28T09:32:01.861Z,21.53
2017-09-28T09:34:32.790Z,20.17
2017-09-28T09:37:03.889Z,20.47
2017-09-28T09:39:34.145Z,22.77
2017-09-28T09:42:04.570Z,21.43
2017-09-28T09:44:34.730Z,22.80
2017-09-28T09:47:06.078Z,21.27
2017-09-28T09:49:36.277Z,24.17
2017-09-28T09:52:06.796Z,25.00
2017-09-28T09:54:37.312Z,23.67
2017-09-28T09:57:07.682Z,23.90
2017-09-28T09:59:38.135Z,26.20
2017-09-28T10:02:08.454Z,23.00
2017-09-28T10:04:38.675Z,25.00
2017-09-28T10:07:25.016Z,24.43
2017-09-28T10:10:14.329Z,25.90
2017-09-28T10:12:56.646Z,26.03
2017-09-28T10:15:41.851Z,24.77
2017-09-28T10:18:14.142Z,25.83
2017-09-28T10:20:45.491Z,24.33
2017-09-28T10:23:16.582Z,26.27
2017-09-28T10:25:47.061Z,28.83
2017-09-28T10:28:18.979Z,31.13
2017-09-28T10:30:49.306Z,27.57
2017-09-28T10:33:19.468Z,28.70
2017-09-28T10:35:49.956Z,27.83
2017-09-28T10:38:20.267Z,26.40
2017-09-28T10:40:50.620Z,27.90
2017-09-28T10:43:20.701Z,25.60
2017-09-28T10:45:51.061Z,25.83
2017-09-28T10:48:21.635Z,25.00
2017-09-28T10:50:51.990Z,26.50
2017-09-28T10:53:22.266Z,23.67
2017-09-28T10:55:53.835Z,23.50
2017-09-28T10:58:24.261Z,23.97
2017-09-28T11:00:55.417Z,24.80
2017-09-28T11:03:25.801Z,24.80
2017-09-28T11:05:56.113Z,23.50
2017-09-28T11:08:26.515Z,25.20
2017-09-28T11:10:56.859Z,23.07
2017-09-28T11:13:27.355Z,21.27
2017-09-28T11:15:57.684Z,22.27
2017-09-28T11:18:28.234Z,22.83
2017-09-28T11:20:58.518Z,23.80
2017-09-28T11:23:28.795Z,21.80
2017-09-28T11:25:58.987Z,21.70
2017-09-28T11:28:29.297Z,23.40
2017-09-28T11:30:59.481Z,21.10
2017-09-28T11:33:29.819Z,19.80
2017-09-28T11:36:00.107Z,21.10
2017-09-28T11:38:30.598Z,21.87
2017-09-28T11:41:00.876Z,20.50
2017-09-28T11:43:31.859Z,18.30
2017-09-28T11:46:02.153Z,19.67
2017-09-28T11:48:32.492Z,17.23
2017-09-28T11:51:02.707Z,19.30
2017-09-28T11:53:33.045Z,17.40
2017-09-28T11:56:03.461Z,17.93
2017-09-28T11:58:33.845Z,16.83
2017-09-28T12:01:05.743Z,17.70
2017-09-28T12:03:36.034Z,15.93
2017-09-28T12:06:06.358Z,16.57
2017-09-28T12:08:36.701Z,18.10
2017-09-28T12:11:07.186Z,18.13
2017-09-28T12:13:37.566Z,18.80
2017-09-28T12:16:07.887Z,18.77
2017-09-28T12:18:38.272Z,17.90
2017-09-28T12:21:08.553Z,18.73
2017-09-28T12:23:39.015Z,18.70
2017-09-28T12:26:09.240Z,17.37
2017-09-28T12:28:39.658Z,16.67
2017-09-28T12:31:10.214Z,16.80
2017-09-28T12:33:40.711Z,16.47
2017-09-28T12:36:11.057Z,17.77
2017-09-28T12:38:42.163Z,18.03
2017-09-28T12:41:12.508Z,17.23
2017-09-28T12:43:43.740Z,17.03
2017-09-28T12:46:14.068Z,18.13
2017-09-28T12:48:44.249Z,20.10
2017-09-28T12:51:14.697Z,17.40
2017-09-28T12:53:44.890Z,19.03
2017-09-28T12:56:15.185Z,19.40
2017-09-28T12:58:45.587Z,18.83
2017-09-28T13:01:15.902Z,18.97
2017-09-28T13:03:46.144Z,18.10
2017-09-28T13:06:16.537Z,18.13
2017-09-28T13:08:47.010Z,19.47
2017-09-28T13:11:17.363Z,19.10
2017-09-28T13:13:47.668Z,18.60
2017-09-28T13:16:18.031Z,17.97
2017-09-28T13:18:48.465Z,20.20
2017-09-28T13:21:18.675Z,19.97
2017-09-28T13:23:49.161Z,20.13
2017-09-28T13:26:19.434Z,20.87
2017-09-28T13:28:49.724Z,19.67
2017-09-28T13:31:20.129Z,19.50
2017-09-28T13:33:52.036Z,20.77
2017-09-28T13:36:23.140Z,21.70
2017-09-28T13:38:53.400Z,22.20
2017-09-28T13:41:23.900Z,20.60
2017-09-28T13:43:54.391Z,21.60
2017-09-28T13:46:24.725Z,22.70
2017-09-28T13:48:55.210Z,24.63
2017-09-28T13:51:25.588Z,24.67
2017-09-28T13:53:56.023Z,24.80
2017-09-28T13:56:26.436Z,28.33
2017-09-28T13:58:56.949Z,26.13
2017-09-28T14:01:27.250Z,27.17
2017-09-28T14:03:57.570Z,26.60
2017-09-28T14:06:28.605Z,24.10
2017-09-28T14:08:59.155Z,26.77
2017-09-28T14:11:29.818Z,24.37
2017-09-28T14:14:00.291Z,25.57
2017-09-28T14:16:30.909Z,24.90
2017-09-28T14:19:02.064Z,25.87
2017-09-28T14:21:32.488Z,26.70
2017-09-28T14:24:02.753Z,24.70
2017-09-28T14:26:33.147Z,25.07
2017-09-28T14:29:03.415Z,25.97
2017-09-28T14:31:33.609Z,23.57
2017-09-28T14:34:03.680Z,21.50
2017-09-28T14:36:34.872Z,25.00
2017-09-28T14:39:05.538Z,22.73
2017-09-28T14:41:36.325Z,23.20
2017-09-28T14:44:06.701Z,22.90
2017-09-28T14:46:38.411Z,25.07
2017-09-28T14:49:08.627Z,23.60
2017-09-28T14:51:39.034Z,23.53
2017-09-28T14:54:10.110Z,24.87
2017-09-28T14:56:42.533Z,24.30
2017-09-28T14:59:13.721Z,25.50
2017-09-28T15:01:44.350Z,24.93
2017-09-28T15:04:14.750Z,23.80
2017-09-28T15:06:45.799Z,24.20
2017-09-28T15:09:16.206Z,23.43
2017-09-28T15:11:47.384Z,24.17
2017-09-28T15:14:18.681Z,25.10
2017-09-28T15:16:49.762Z,24.80
2017-09-28T15:19:20.240Z,23.23
2017-09-28T15:21:50.764Z,23.00
2017-09-28T15:24:21.116Z,23.30
2017-09-28T15:26:51.512Z,23.23
2017-09-28T15:29:21.809Z,23.00
2017-09-28T15:31:52.078Z,22.43
2017-09-28T15:34:22.445Z,23.50
2017-09-28T15:36:52.978Z,21.83
2017-09-28T15:39:23.300Z,22.83
2017-09-28T15:41:53.859Z,22.07
2017-09-28T15:44:24.263Z,23.13
2017-09-28T15:46:54.397Z,22.17
2017-09-28T15:49:24.662Z,24.83
2017-09-28T15:51:55.790Z,22.77
2017-09-28T15:54:26.121Z,22.67
2017-09-28T15:56:56.526Z,22.60
2017-09-28T15:59:27.006Z,21.70
2017-09-28T16:01:57.393Z,21.90
2017-09-28T16:04:27.909Z,21.57
2017-09-28T16:06:58.293Z,22.87
2017-09-28T16:09:28.508Z,22.23
2017-09-28T16:11:58.829Z,25.17
2017-09-28T16:14:30.089Z,21.73
2017-09-28T16:17:00.416Z,23.00
2017-09-28T16:19:30.923Z,20.10
2017-09-28T16:22:01.261Z,21.90
2017-09-28T16:24:32.405Z,25.00
2017-09-28T16:27:02.959Z,25.63
2017-09-28T16:29:33.351Z,23.60
2017-09-28T16:32:04.547Z,23.70
2017-09-28T16:34:35.064Z,25.50
2017-09-28T16:37:05.383Z,24.27
2017-09-28T16:39:35.703Z,23.00
2017-09-28T16:42:06.148Z,27.67
2017-09-28T16:44:36.599Z,25.03
2017-09-28T16:47:07.072Z,25.17
2017-09-28T16:49:37.518Z,23.83
2017-09-28T16:52:08.028Z,24.83
2017-09-28T16:54:38.343Z,28.50
2017-09-28T16:57:08.521Z,26.80
2017-09-28T16:59:38.870Z,27.27
2017-09-28T17:02:09.475Z,25.63
2017-09-28T17:04:40.584Z,26.50
2017-09-28T17:07:10.962Z,28.53
2017-09-28T17:09:41.515Z,27.33
2017-09-28T17:12:11.896Z,29.00
2017-09-28T17:14:42.537Z,28.57
2017-09-28T17:17:13.098Z,24.57
2017-09-28T17:19:43.559Z,28.97
2017-09-28T17:22:14.083Z,27.60
2017-09-28T17:24:44.977Z,30.40
2017-09-28T17:27:15.433Z,28.70
2017-09-28T17:29:46.009Z,27.50
2017-09-28T17:32:16.535Z,28.80
2017-09-28T17:34:47.168Z,28.30
2017-09-28T17:37:18.416Z,30.17
2017-09-28T17:39:48.844Z,28.30
2017-09-28T17:42:19.055Z,29.70
2017-09-28T17:44:49.631Z,29.20
2017-09-28T17:47:19.909Z,28.40
2017-09-28T17:49:50.980Z,25.60
2017-09-28T17:52:21.346Z,26.03
2017-09-28T17:54:51.614Z,28.70
2017-09-28T17:57:22.033Z,28.00
2017-09-28T17:59:52.428Z,25.50
2017-09-28T18:02:22.831Z,27.33
2017-09-28T18:04:53.090Z,27.70
2017-09-28T18:07:23.752Z,25.13
2017-09-28T18:09:54.093Z,26.97
2017-09-28T18:12:24.715Z,27.50
2017-09-28T18:14:55.046Z,24.50
2017-09-28T18:17:25.482Z,25.80
2017-09-28T18:19:55.747Z,26.10
2017-09-28T18:22:26.071Z,25.77
2017-09-28T18:24:57.107Z,26.07
2017-09-28T18:27:27.629Z,25.73
2017-09-28T18:29:58.200Z,24.87
2017-09-28T18:32:28.669Z,24.70
2017-09-28T18:34:59.237Z,24.27
2017-09-28T18:37:29.737Z,24.00
2017-09-28T18:40:00.288Z,23.83
2017-09-28T18:42:30.855Z,26.23
2017-09-28T18:45:01.346Z,24.53
2017-09-28T18:47:32.387Z,22.60
2017-09-28T18:50:03.598Z,26.07
2017-09-28T18:52:34.048Z,25.73
2017-09-28T18:55:05.317Z,25.90
2017-09-28T18:57:36.067Z,23.97
2017-09-28T19:00:06.435Z,24.83
2017-09-28T19:02:37.584Z,26.17
2017-09-28T19:05:08.758Z,25.50
2017-09-28T19:07:41.116Z,24.63
2017-09-28T19:10:11.556Z,24.30
2017-09-28T19:12:42.043Z,25.40
2017-09-28T19:15:12.593Z,24.87
2017-09-28T19:17:57.615Z,24.80
2017-09-28T19:20:28.202Z,24.13
2017-09-28T19:22:59.605Z,26.27
2017-09-28T19:25:30.133Z,24.20
2017-09-28T19:28:00.590Z,25.53
2017-09-28T19:30:31.082Z,26.07
2017-09-28T19:33:01.445Z,25.33
2017-09-28T19:35:31.905Z,23.80
2017-09-28T19:38:02.307Z,24.20
2017-09-28T19:40:33.585Z,25.23
2017-09-28T19:43:03.888Z,25.10
2017-09-28T19:45:34.928Z,24.50
2017-09-28T19:48:05.344Z,23.60
2017-09-28T19:50:35.779Z,23.80
2017-09-28T19:53:06.328Z,24.50
2017-09-28T19:55:36.724Z,26.40
2017-09-28T19:58:07.028Z,25.97
2017-09-28T20:00:37.600Z,25.20
2017-09-28T20:03:08.000Z,23.73
2017-09-28T20:05:38.557Z,24.03
2017-09-28T20:08:09.828Z,25.30
2017-09-28T20:10:40.312Z,25.80
2017-09-28T20:13:10.705Z,24.77
2017-09-28T20:15:40.984Z,25.70
2017-09-28T20:18:11.554Z,25.30
2017-09-28T20:20:41.898Z,25.30
2017-09-28T20:23:12.388Z,23.90
2017-09-28T20:25:42.595Z,22.87
2017-09-28T20:28:13.732Z,23.67
2017-09-28T20:30:44.205Z,23.83
2017-09-28T20:33:14.522Z,23.93
2017-09-28T20:35:44.780Z,25.90
2017-09-28T20:38:15.174Z,25.70
2017-09-28T20:40:45.629Z,25.97
2017-09-28T20:43:15.692Z,28.40
2017-09-28T20:45:47.700Z,26.40
2017-09-28T20:48:18.073Z,26.33
2017-09-28T20:50:48.521Z,27.10
2017-09-28T20:53:18.875Z,25.37
2017-09-28T20:55:49.899Z,24.90
2017-09-28T20:58:21.399Z,26.13
2017-09-28T21:00:53.292Z,24.77
2017-09-28T21:03:23.473Z,25.87
2017-09-28T21:05:53.774Z,25.30
2017-09-28T21:08:23.821Z,25.50
2017-09-28T21:10:54.198Z,26.23
2017-09-28T21:13:24.535Z,26.20
2017-09-28T21:15:54.660Z,26.60
2017-09-28T21:18:24.950Z,25.33
2017-09-28T21:20:55.042Z,25.93
2017-09-28T21:23:26.027Z,25.53
2017-09-28T21:25:56.326Z,24.53
2017-09-28T21:28:26.270Z,25.37
2017-09-28T21:30:56.483Z,26.13
2017-09-28T21:33:26.715Z,23.87
2017-09-28T21:35:57.129Z,24.50
2017-09-28T21:38:27.617Z,24.13
2017-09-28T21:40:58.144Z,24.07
2017-09-28T21:43:28.639Z,24.23
2017-09-28T21:45:59.076Z,23.33
2017-09-28T21:48:29.452Z,24.87
2017-09-28T21:51:00.580Z,26.17
2017-09-28T21:53:31.844Z,26.30
2017-09-28T21:56:02.331Z,24.40
2017-09-28T21:58:32.663Z,26.47
2017-09-28T22:01:03.894Z,25.23
2017-09-28T22:03:34.228Z,25.53
2017-09-28T22:06:05.331Z,25.63
2017-09-28T22:08:35.556Z,24.60
2017-09-28T22:11:05.679Z,23.27
2017-09-28T22:13:36.051Z,24.53
2017-09-28T22:16:06.388Z,25.90
2017-09-28T22:18:36.698Z,27.03
2017-09-28T22:21:07.152Z,24.60
2017-09-28T22:23:37.310Z,25.50
2017-09-28T22:26:07.575Z,26.63
2017-09-28T22:28:39.135Z,25.83
2017-09-28T22:31:10.094Z,26.90
2017-09-28T22:33:40.331Z,26.50
2017-09-28T22:36:10.662Z,27.27
2017-09-28T22:38:41.139Z,25.53
2017-09-28T22:41:12.314Z,27.17
2017-09-28T22:43:42.504Z,28.50
2017-09-28T22:46:12.795Z,29.70
2017-09-28T22:48:43.145Z,27.30
2017-09-28T22:51:13.390Z,27.30
2017-09-28T22:53:43.570Z,25.70
2017-09-28T22:56:14.626Z,26.47
2017-09-28T22:58:45.832Z,27.17
2017-09-28T23:01:16.465Z,25.77
2017-09-28T23:03:46.649Z,26.80
2017-09-28T23:06:16.995Z,29.07
2017-09-28T23:08:47.551Z,28.17
2017-09-28T23:11:17.886Z,25.90
2017-09-28T23:13:48.162Z,24.40
2017-09-28T23:16:18.437Z,27.70
2017-09-28T23:18:48.614Z,24.57
2017-09-28T23:21:18.806Z,24.77
2017-09-28T23:23:49.154Z,25.90
2017-09-28T23:26:19.686Z,27.53
2017-09-28T23:28:50.017Z,27.77
2017-09-28T23:31:20.666Z,28.13
2017-09-28T23:33:51.715Z,28.17
2017-09-28T23:36:22.006Z,29.17
2017-09-28T23:38:52.360Z,28.33
2017-09-28T23:41:22.710Z,26.47
2017-09-28T23:43:52.995Z,29.03
2017-09-28T23:46:23.266Z,29.13
2017-09-28T23:48:53.501Z,28.40
2017-09-28T23:51:23.617Z,27.03
2017-09-28T23:53:53.766Z,27.67
2017-09-28T23:56:24.081Z,28.63
2017-09-28T23:58:54.536Z,27.10
